createdAt,value
2023-08-16T02:43:41.999Z,8.95
2023-08-16T02:47:45.606Z,9.27
2023-08-16T02:51:48.804Z,9.10
2023-08-16T06:05:23.545Z,7.20
2023-08-16T06:09:29.816Z,8.02
2023-08-16T06:13:33.061Z,7.45
2023-08-16T06:17:36.428Z,7.65
2023-08-16T06:21:41.506Z,7.30
2023-08-16T06:25:44.775Z,7.43
2023-08-16T06:29:47.782Z,7.32
2023-08-16T06:33:50.948Z,6.55
2023-08-16T06:37:55.449Z,6.32
2023-08-16T06:41:58.520Z,7.20
2023-08-16T06:46:01.433Z,6.43
2023-08-16T06:50:07.613Z,7.03
2023-08-16T06:54:13.313Z,6.75
2023-08-16T06:58:16.385Z,7.32
2023-08-16T07:02:22.358Z,7.10
2023-08-16T07:06:27.912Z,6.63
2023-08-16T07:10:32.149Z,6.65
2023-08-16T07:14:35.487Z,6.18
2023-08-16T07:18:38.755Z,6.32
2023-08-16T07:22:42.069Z,6.53
2023-08-16T07:26:46.477Z,5.70
2023-08-16T07:30:49.447Z,6.10
2023-08-16T07:34:52.552Z,5.57
2023-08-16T07:38:55.582Z,5.25
2023-08-16T07:43:00.092Z,5.40
2023-08-16T07:47:03.155Z,6.13
2023-08-16T07:51:06.421Z,5.30
2023-08-16T07:55:10.822Z,5.40
2023-08-16T07:59:15.473Z,4.93
2023-08-16T08:03:19.151Z,5.50
2023-08-16T08:07:22.167Z,5.68
2023-08-16T08:11:25.098Z,5.47
2023-08-16T08:15:31.142Z,5.82
2023-08-16T08:19:34.276Z,5.03
2023-08-16T08:23:37.216Z,5.57
2023-08-16T08:27:40.570Z,5.70
2023-08-16T08:31:45.629Z,5.75
2023-08-16T08:35:49.688Z,5.78
2023-08-16T08:39:52.837Z,5.72
2023-08-16T08:44:00.124Z,5.07
2023-08-16T08:48:05.552Z,4.55
2023-08-16T08:52:09.748Z,5.00
2023-08-16T08:56:18.552Z,4.82
2023-08-16T09:00:26.326Z,5.00
2023-08-16T09:04:37.724Z,5.38
2023-08-16T09:08:45.255Z,5.20
2023-08-16T09:12:48.641Z,5.15
2023-08-16T09:16:52.040Z,5.00
2023-08-16T09:21:00.473Z,4.75
2023-08-16T09:25:04.699Z,4.95
2023-08-16T09:29:08.287Z,4.40
2023-08-16T09:33:14.943Z,4.70
2023-08-16T09:37:21.404Z,5.03
2023-08-16T09:41:24.130Z,4.78
2023-08-16T09:45:34.189Z,4.05
2023-08-16T09:49:38.239Z,4.57
2023-08-16T09:53:49.711Z,4.65
2023-08-16T09:57:53.596Z,4.45
2023-08-16T10:02:13.637Z,4.60
2023-08-16T10:06:20.482Z,5.15
2023-08-16T10:10:25.596Z,5.03
2023-08-16T10:14:28.955Z,5.22
2023-08-16T10:18:33.272Z,4.85
2023-08-16T10:22:42.029Z,4.60
2023-08-16T10:26:50.470Z,4.80
2023-08-16T10:35:02.959Z,4.55
2023-08-16T10:39:09.968Z,4.93
2023-08-16T10:47:31.232Z,4.47
2023-08-16T10:51:45.115Z,4.68
2023-08-16T10:55:54.364Z,4.63
2023-08-16T11:00:07.415Z,4.28
2023-08-16T11:04:10.502Z,4.80
2023-08-16T11:08:14.521Z,4.60
2023-08-16T11:12:20.330Z,4.65
2023-08-16T11:16:26.092Z,4.88
2023-08-16T11:20:30.680Z,4.80
2023-08-16T11:24:38.232Z,4.65
2023-08-16T11:28:44.120Z,4.50
2023-08-16T11:32:49.044Z,4.55
2023-08-16T11:36:54.839Z,4.57
2023-08-16T11:40:58.198Z,4.70
2023-08-16T11:45:01.965Z,4.15
2023-08-16T11:49:09.768Z,4.57
2023-08-16T11:53:18.527Z,4.82
2023-08-16T11:57:21.861Z,4.03
2023-08-16T12:01:27.716Z,4.40
2023-08-16T12:05:37.716Z,4.38
2023-08-16T12:09:42.123Z,5.25
2023-08-16T12:13:45.220Z,4.50
2023-08-16T12:17:48.283Z,4.63
2023-08-16T12:21:54.352Z,5.00
2023-08-16T12:25:58.459Z,5.18
2023-08-16T12:30:01.770Z,5.20
2023-08-16T12:34:07.298Z,4.60
2023-08-16T12:38:14.372Z,4.80
2023-08-16T12:42:17.495Z,4.63
2023-08-16T12:46:20.699Z,4.97
2023-08-16T12:50:24.161Z,5.28
2023-08-16T12:54:28.566Z,5.00
2023-08-16T12:58:34.522Z,4.75
2023-08-16T13:02:38.046Z,5.32
2023-08-16T13:06:52.551Z,5.00
2023-08-16T13:11:08.480Z,5.03
2023-08-16T13:15:26.310Z,5.43
2023-08-16T13:24:08.198Z,5.45
2023-08-16T13:28:20.110Z,5.05
2023-08-16T13:32:27.530Z,4.97
2023-08-16T13:40:52.378Z,5.82
2023-08-16T13:53:09.804Z,5.47
2023-08-16T13:57:12.855Z,5.97
2023-08-16T14:01:18.052Z,5.30
2023-08-16T14:05:21.324Z,5.25
2023-08-16T14:09:24.523Z,5.70
2023-08-16T14:13:28.648Z,6.53
2023-08-16T14:17:35.453Z,5.40
2023-08-16T14:21:42.502Z,5.97
2023-08-16T14:25:51.015Z,5.30
2023-08-16T14:29:54.164Z,5.47
2023-08-16T14:33:58.557Z,5.90
2023-08-16T14:38:03.103Z,5.80
2023-08-16T14:42:06.355Z,5.70
2023-08-16T14:46:09.538Z,6.05
2023-08-16T14:50:18.452Z,6.32
2023-08-16T14:54:21.222Z,6.00
2023-08-16T14:58:23.847Z,6.07
2023-08-16T15:02:27.364Z,6.55
2023-08-16T15:06:32.756Z,6.50
2023-08-16T15:10:35.965Z,6.55
2023-08-16T15:14:38.402Z,6.20
2023-08-16T15:18:41.579Z,6.32
2023-08-16T15:22:46.361Z,6.43
2023-08-16T15:26:49.498Z,6.65
2023-08-16T15:30:57.894Z,6.07
2023-08-16T15:35:03.372Z,5.63
2023-08-16T15:39:08.690Z,5.57
2023-08-16T15:43:11.783Z,6.47
2023-08-16T15:47:15.214Z,7.00
2023-08-16T15:51:18.296Z,6.93
2023-08-16T15:55:22.756Z,5.68
2023-08-16T15:59:31.508Z,7.28
2023-08-16T16:03:41.808Z,7.13
2023-08-16T16:07:45.987Z,7.35
2023-08-16T16:11:50.366Z,6.32
2023-08-16T16:15:53.486Z,7.70
2023-08-16T16:19:57.003Z,7.13
2023-08-16T16:24:00.457Z,7.38
2023-08-16T16:28:05.620Z,7.40
2023-08-16T16:32:09.373Z,7.22
2023-08-16T16:44:02.054Z,7.18
2023-08-16T16:48:05.997Z,7.30
2023-08-16T16:52:09.307Z,7.03
2023-08-16T16:56:12.575Z,8.00
2023-08-16T17:00:18.208Z,7.30
2023-08-16T17:04:21.444Z,8.02
2023-08-16T17:08:27.798Z,7.57
2023-08-16T17:12:31.231Z,8.02
2023-08-16T17:16:38.985Z,7.57
2023-08-16T17:20:41.971Z,7.70
2023-08-16T17:24:45.405Z,8.40
2023-08-16T17:28:49.132Z,8.40
2023-08-16T17:32:54.651Z,8.43
2023-08-16T17:36:57.697Z,8.85
2023-08-16T17:41:02.001Z,8.60
2023-08-16T17:45:05.812Z,9.82
2023-08-16T17:49:10.320Z,8.57
2023-08-16T17:53:13.863Z,9.60
2023-08-16T17:57:17.346Z,9.73
2023-08-16T18:01:20.556Z,10.27
2023-08-16T18:05:24.890Z,10.50
2023-08-16T18:09:28.024Z,10.77
2023-08-16T18:13:31.865Z,9.95
2023-08-16T18:17:36.758Z,9.43
2023-08-16T18:21:41.329Z,10.48
2023-08-16T18:25:44.779Z,9.45
2023-08-16T18:29:47.790Z,10.88
2023-08-16T18:33:50.845Z,10.18
2023-08-16T18:37:56.116Z,10.27
2023-08-16T18:42:01.272Z,10.13
2023-08-16T18:46:04.733Z,10.05
2023-08-16T18:50:09.180Z,9.65
2023-08-16T18:54:13.986Z,10.82
2023-08-16T18:58:19.501Z,11.30
2023-08-16T19:02:25.815Z,15.65
2023-08-16T19:06:29.358Z,15.52
2023-08-16T19:10:33.737Z,12.82
2023-08-16T19:14:38.561Z,9.93
2023-08-16T19:18:42.538Z,10.52
2023-08-16T19:22:45.856Z,9.20
2023-08-16T19:26:50.589Z,9.07
2023-08-16T19:30:56.923Z,9.70
2023-08-16T19:35:01.013Z,13.70
2023-08-16T19:39:05.663Z,10.73
2023-08-16T19:43:10.527Z,10.80
2023-08-16T19:47:13.623Z,13.27
2023-08-16T19:51:23.656Z,14.13
2023-08-16T19:55:26.918Z,13.43
2023-08-16T19:59:31.826Z,14.27
2023-08-16T20:03:35.188Z,14.18
2023-08-16T20:07:41.714Z,11.55
2023-08-16T20:11:46.824Z,11.95
2023-08-16T20:15:54.540Z,11.52
2023-08-16T20:19:57.876Z,12.05
2023-08-16T20:24:01.666Z,12.05
2023-08-16T20:28:05.538Z,11.45
2023-08-16T20:32:16.451Z,11.93
2023-08-16T20:36:19.894Z,11.77
2023-08-16T20:40:23.494Z,11.30
2023-08-16T20:44:31.810Z,11.43
2023-08-16T20:48:36.684Z,11.10
2023-08-16T20:52:42.863Z,11.40
2023-08-16T20:56:49.036Z,11.70
2023-08-16T21:00:52.396Z,10.93
2023-08-16T21:04:57.432Z,10.73
2023-08-16T21:09:00.735Z,11.23
2023-08-16T21:13:04.499Z,10.82
2023-08-16T21:17:08.546Z,11.43
2023-08-16T21:21:12.939Z,10.40
2023-08-16T21:25:16.254Z,12.00
2023-08-16T21:29:20.368Z,11.48
2023-08-16T21:33:23.429Z,11.48
2023-08-16T21:37:28.477Z,10.82
2023-08-16T21:41:31.415Z,10.55
2023-08-16T21:45:34.826Z,10.93
2023-08-16T21:49:37.883Z,11.30
2023-08-16T21:53:42.404Z,12.35
2023-08-16T21:57:45.233Z,11.32
2023-08-16T22:01:48.238Z,11.70
2023-08-16T22:05:52.370Z,11.57
2023-08-16T22:09:57.102Z,11.25
2023-08-16T22:14:00.243Z,11.95
2023-08-16T22:18:06.462Z,11.82
2023-08-16T22:22:09.829Z,11.48
2023-08-16T22:26:14.771Z,11.63
2023-08-16T22:30:17.788Z,12.70
2023-08-16T22:34:22.802Z,12.75
2023-08-16T22:38:27.263Z,11.55
2023-08-16T22:42:36.212Z,12.77
2023-08-16T22:46:40.089Z,11.75
2023-08-16T22:50:46.602Z,11.93
2023-08-16T22:54:49.885Z,11.93
2023-08-16T22:58:54.166Z,11.60
